createdAt,value
2023-03-28T00:01:25.345Z,10.12
2023-03-28T00:03:51.811Z,10.10
2023-03-28T00:06:18.167Z,10.09
2023-03-28T00:08:44.533Z,10.05
2023-03-28T00:11:10.909Z,10.04
2023-03-28T00:13:37.250Z,10.03
2023-03-28T00:16:03.738Z,9.98
2023-03-28T00:18:30.044Z,9.95
2023-03-28T00:20:56.425Z,9.91
2023-03-28T00:23:22.813Z,9.89
2023-03-28T00:25:49.192Z,9.87
2023-03-28T00:28:15.508Z,9.84
2023-03-28T00:30:41.903Z,9.81
2023-03-28T00:33:08.259Z,9.78
2023-03-28T00:35:34.667Z,9.74
2023-03-28T00:38:00.943Z,9.72
2023-03-28T00:40:27.285Z,9.70
2023-03-28T00:42:53.672Z,9.66
2023-03-28T00:45:20.291Z,9.65
2023-03-28T00:47:46.666Z,9.64
2023-03-28T00:50:12.985Z,9.62
2023-03-28T00:52:39.367Z,9.59
2023-03-28T00:55:05.738Z,9.59
2023-03-28T00:57:32.174Z,9.59
2023-03-28T00:59:58.445Z,9.54
2023-03-28T01:02:24.933Z,9.51
2023-03-28T01:04:51.115Z,9.48
2023-03-28T01:07:17.475Z,9.47
2023-03-28T01:09:43.822Z,9.46
2023-03-28T01:12:10.172Z,9.47
2023-03-28T01:14:36.515Z,9.46
2023-03-28T01:17:02.833Z,9.42
2023-03-28T01:19:29.181Z,9.42
2023-03-28T01:21:55.537Z,9.41
2023-03-28T01:24:21.865Z,9.40
2023-03-28T01:26:48.241Z,9.37
2023-03-28T01:29:14.621Z,9.38
2023-03-28T01:31:41.039Z,9.36
2023-03-28T01:34:07.367Z,9.33
2023-03-28T01:36:35.610Z,9.31
2023-03-28T01:39:00.025Z,9.29
2023-03-28T01:41:26.340Z,9.27
2023-03-28T01:43:52.694Z,9.25
2023-03-28T01:46:19.076Z,9.22
2023-03-28T01:48:45.422Z,9.20
2023-03-28T01:51:11.755Z,9.18
2023-03-28T01:53:38.128Z,9.16
2023-03-28T01:56:04.505Z,9.15
2023-03-28T01:58:30.864Z,9.14
2023-03-28T02:00:57.239Z,9.11
2023-03-28T02:03:23.619Z,9.06
2023-03-28T02:05:49.936Z,9.05
2023-03-28T02:08:16.290Z,9.05
2023-03-28T02:10:42.648Z,9.03
2023-03-28T02:13:09.042Z,9.02
2023-03-28T02:15:35.416Z,8.99
2023-03-28T02:18:01.832Z,8.97
2023-03-28T02:20:28.122Z,8.95
2023-03-28T02:22:54.455Z,8.94
2023-03-28T02:25:20.778Z,8.92
2023-03-28T02:27:47.207Z,8.89
2023-03-28T02:30:13.532Z,8.89
2023-03-28T02:32:39.883Z,8.89
2023-03-28T02:35:06.255Z,8.87
2023-03-28T02:37:32.664Z,8.86
2023-03-28T02:39:59.024Z,8.85
2023-03-28T02:42:25.378Z,8.84
2023-03-28T02:44:51.730Z,8.80
2023-03-28T02:47:18.084Z,8.78
2023-03-28T02:49:50.368Z,8.77
2023-03-28T02:52:10.843Z,8.75
2023-03-28T02:54:37.203Z,8.74
2023-03-28T02:57:03.556Z,8.71
2023-03-28T02:59:29.881Z,8.70
2023-03-28T03:01:56.274Z,8.69
2023-03-28T03:04:22.563Z,8.68
2023-03-28T03:06:49.202Z,8.69
2023-03-28T03:09:15.541Z,8.68
2023-03-28T03:11:42.081Z,8.69
2023-03-28T03:14:08.370Z,8.68
2023-03-28T03:16:34.836Z,8.68
2023-03-28T03:19:01.116Z,8.62
2023-03-28T03:21:27.480Z,8.59
2023-03-28T03:23:53.844Z,8.58
2023-03-28T03:26:20.212Z,8.57
2023-03-28T03:28:46.557Z,8.55
2023-03-28T03:31:12.952Z,8.54
2023-03-28T03:33:39.292Z,8.53
2023-03-28T03:36:05.793Z,8.51
2023-03-28T03:38:32.030Z,8.49
2023-03-28T03:40:58.462Z,8.46
2023-03-28T03:43:24.822Z,8.48
2023-03-28T03:45:51.228Z,8.47
2023-03-28T03:48:17.583Z,8.45
2023-03-28T03:50:43.965Z,8.44
2023-03-28T03:53:10.267Z,8.43
2023-03-28T03:55:36.616Z,8.43
2023-03-28T03:58:02.954Z,8.42
2023-03-28T04:00:29.359Z,8.39
2023-03-28T04:02:55.723Z,8.37
2023-03-28T04:05:22.080Z,8.35
2023-03-28T04:07:48.469Z,8.36
2023-03-28T04:10:14.811Z,8.33
2023-03-28T04:12:41.162Z,8.31
2023-03-28T04:15:07.582Z,8.29
2023-03-28T04:17:33.952Z,8.26
2023-03-28T04:20:00.297Z,8.26
2023-03-28T04:22:26.663Z,8.24
2023-03-28T04:24:53.024Z,8.23
2023-03-28T04:27:19.341Z,8.22
2023-03-28T04:29:45.729Z,8.22
2023-03-28T04:32:12.089Z,8.20
2023-03-28T04:34:39.061Z,8.22
2023-03-28T04:37:04.772Z,8.23
2023-03-28T04:39:31.111Z,9.12
2023-03-28T04:41:57.481Z,10.11
2023-03-28T04:44:24.132Z,10.74
2023-03-28T04:46:50.487Z,11.05
2023-03-28T04:49:16.887Z,11.32
2023-03-28T04:51:43.278Z,11.55
2023-03-28T04:54:09.688Z,11.71
2023-03-28T04:56:37.112Z,11.83
2023-03-28T04:59:03.502Z,11.57
2023-03-28T05:01:29.850Z,11.15
2023-03-28T05:03:56.144Z,10.81
2023-03-28T05:06:24.735Z,10.52
2023-03-28T05:08:51.092Z,10.31
2023-03-28T05:11:17.465Z,10.14
2023-03-28T05:13:43.853Z,10.03
2023-03-28T05:16:12.659Z,9.98
2023-03-28T05:18:38.966Z,9.92
2023-03-28T05:21:05.273Z,9.86
2023-03-28T05:23:31.648Z,9.82
2023-03-28T05:25:58.010Z,9.75
2023-03-28T05:28:24.388Z,9.66
2023-03-28T05:30:50.713Z,9.57
2023-03-28T05:33:17.133Z,9.52
2023-03-28T05:35:43.529Z,9.46
2023-03-28T05:38:09.826Z,9.40
2023-03-28T05:40:36.216Z,9.33
2023-03-28T05:43:02.580Z,9.26
2023-03-28T05:45:28.946Z,9.21
2023-03-28T05:47:55.278Z,9.14
2023-03-28T05:50:21.651Z,9.08
2023-03-28T05:52:48.009Z,9.05
2023-03-28T05:55:14.386Z,9.01
2023-03-28T05:57:40.814Z,8.98
2023-03-28T06:00:09.026Z,8.96
2023-03-28T06:02:35.353Z,8.91
2023-03-28T06:05:01.848Z,8.89
2023-03-28T06:07:39.354Z,8.88
2023-03-28T06:09:54.771Z,8.85
2023-03-28T06:12:21.173Z,8.88
2023-03-28T06:14:47.574Z,8.89
2023-03-28T06:17:14.000Z,8.92
2023-03-28T06:19:40.316Z,8.95
2023-03-28T06:22:06.678Z,8.95
2023-03-28T06:24:33.058Z,8.99
2023-03-28T06:26:59.396Z,9.01
2023-03-28T06:29:25.825Z,9.05
2023-03-28T06:31:52.249Z,9.11
2023-03-28T06:34:18.516Z,9.16
2023-03-28T06:36:44.894Z,9.24
2023-03-28T06:39:11.259Z,9.29
2023-03-28T06:41:37.624Z,9.36
2023-03-28T06:44:04.006Z,9.42
2023-03-28T06:46:30.360Z,9.50
2023-03-28T06:48:56.839Z,9.57
2023-03-28T06:51:23.210Z,9.61
2023-03-28T06:53:49.631Z,9.63
2023-03-28T06:56:15.942Z,9.64
2023-03-28T06:58:42.355Z,9.63
2023-03-28T07:01:08.718Z,9.60
2023-03-28T07:03:35.181Z,9.60
2023-03-28T07:06:01.429Z,9.57
2023-03-28T07:08:28.195Z,9.57
2023-03-28T07:10:54.555Z,9.54
2023-03-28T07:13:20.898Z,9.53
2023-03-28T07:15:47.303Z,9.57
2023-03-28T07:18:13.687Z,9.68
2023-03-28T07:20:41.056Z,9.84
2023-03-28T07:23:07.470Z,10.07
2023-03-28T07:25:33.887Z,10.31
2023-03-28T07:28:00.218Z,10.63
2023-03-28T07:30:26.656Z,10.98
2023-03-28T07:33:01.676Z,11.35
2023-03-28T07:35:19.326Z,11.65
2023-03-28T07:37:46.050Z,11.84
2023-03-28T07:40:12.396Z,12.01
2023-03-28T07:42:38.809Z,12.13
2023-03-28T07:45:05.245Z,12.21
2023-03-28T07:47:31.668Z,12.29
2023-03-28T07:49:57.953Z,12.30
2023-03-28T07:52:24.386Z,12.25
2023-03-28T07:54:50.742Z,12.19
2023-03-28T07:57:17.256Z,12.09
2023-03-28T07:59:43.735Z,11.99
2023-03-28T08:02:10.130Z,11.91
2023-03-28T08:04:36.453Z,11.82
2023-03-28T08:07:02.846Z,11.74
2023-03-28T08:09:29.210Z,11.67
2023-03-28T08:11:55.561Z,11.57
2023-03-28T08:14:22.226Z,11.49
2023-03-28T08:16:48.624Z,11.42
2023-03-28T08:19:15.038Z,11.35
2023-03-28T08:21:41.391Z,11.29
2023-03-28T08:24:07.956Z,11.25
2023-03-28T08:26:34.320Z,11.22
2023-03-28T08:29:00.692Z,11.22
2023-03-28T08:31:27.052Z,11.24
2023-03-28T08:33:53.362Z,11.28
2023-03-28T08:36:19.742Z,11.31
2023-03-28T08:38:46.117Z,11.34
2023-03-28T08:41:12.456Z,11.36
2023-03-28T08:43:38.821Z,11.42
2023-03-28T08:46:05.262Z,11.49
2023-03-28T08:48:31.602Z,11.60
2023-03-28T08:50:58.032Z,11.74
2023-03-28T08:53:24.395Z,11.85
2023-03-28T08:55:52.301Z,11.93
2023-03-28T08:58:17.030Z,12.01
2023-03-28T09:00:43.390Z,12.09
2023-03-28T09:03:09.801Z,12.18
2023-03-28T09:05:36.101Z,12.37
2023-03-28T09:08:02.475Z,12.56
2023-03-28T09:10:28.889Z,12.71
2023-03-28T09:12:55.250Z,12.83
2023-03-28T09:15:21.580Z,13.02
2023-03-28T09:17:48.169Z,13.17
2023-03-28T09:20:14.523Z,13.35
2023-03-28T09:22:40.906Z,13.49
2023-03-28T09:25:07.313Z,13.54
2023-03-28T09:27:33.676Z,13.58
2023-03-28T09:30:00.122Z,13.62
2023-03-28T09:32:26.671Z,13.68
2023-03-28T09:34:53.012Z,13.73
2023-03-28T09:37:19.379Z,13.80
2023-03-28T09:39:45.729Z,13.88
2023-03-28T09:42:12.130Z,14.01
2023-03-28T09:44:50.970Z,14.15
2023-03-28T09:47:04.887Z,14.30
2023-03-28T09:49:31.251Z,14.42
2023-03-28T09:51:57.594Z,14.56
2023-03-28T09:54:23.973Z,14.79
2023-03-28T09:56:50.349Z,15.05
2023-03-28T09:59:16.725Z,15.28
2023-03-28T10:01:43.122Z,15.37
2023-03-28T10:04:09.529Z,15.37
2023-03-28T10:06:35.830Z,15.32
2023-03-28T10:09:02.295Z,15.25
2023-03-28T10:11:28.620Z,15.15
2023-03-28T10:13:55.009Z,15.07
2023-03-28T10:16:21.412Z,15.03
2023-03-28T10:18:47.789Z,15.01
2023-03-28T10:21:14.331Z,15.30
2023-03-28T10:23:40.746Z,15.61
2023-03-28T10:26:07.152Z,15.80
2023-03-28T10:28:33.802Z,15.86
2023-03-28T10:31:00.275Z,15.81
2023-03-28T10:33:26.513Z,15.73
2023-03-28T10:35:53.028Z,15.62
2023-03-28T10:38:19.347Z,15.52
2023-03-28T10:40:45.693Z,15.45
2023-03-28T10:43:12.099Z,15.51
2023-03-28T10:45:38.431Z,15.81
2023-03-28T10:48:04.920Z,16.19
2023-03-28T10:50:31.161Z,16.53
2023-03-28T10:52:57.556Z,16.69
2023-03-28T10:55:24.059Z,16.71
2023-03-28T10:57:50.397Z,16.72
2023-03-28T11:00:16.732Z,16.81
2023-03-28T11:02:43.205Z,17.06
2023-03-28T11:05:09.545Z,17.23
2023-03-28T11:07:35.975Z,17.34
2023-03-28T11:10:02.301Z,17.46
2023-03-28T11:12:31.011Z,17.46
2023-03-28T11:14:55.129Z,17.63
2023-03-28T11:17:21.534Z,17.90
2023-03-28T11:19:48.100Z,18.22
2023-03-28T11:22:14.488Z,18.50
2023-03-28T11:24:40.895Z,18.79
2023-03-28T11:27:15.352Z,19.05
2023-03-28T11:29:42.593Z,19.19
2023-03-28T11:32:00.205Z,19.23
2023-03-28T11:34:26.505Z,19.33
2023-03-28T11:36:52.903Z,19.50
2023-03-28T11:39:19.332Z,19.70
2023-03-28T11:41:45.774Z,19.88
2023-03-28T11:44:12.026Z,20.02
2023-03-28T11:46:38.526Z,20.15
2023-03-28T11:49:04.814Z,20.31
2023-03-28T11:51:31.178Z,20.45
2023-03-28T11:53:57.734Z,20.57
2023-03-28T11:56:24.111Z,20.65
2023-03-28T11:58:50.429Z,20.72
2023-03-28T12:01:16.881Z,20.78
2023-03-28T12:03:43.273Z,20.87
2023-03-28T12:06:10.946Z,20.96
2023-03-28T12:08:35.949Z,21.05
2023-03-28T12:11:02.508Z,21.11
2023-03-28T12:13:28.909Z,21.16
2023-03-28T12:15:55.324Z,21.20
2023-03-28T12:18:21.722Z,21.23
2023-03-28T12:20:48.104Z,21.24
2023-03-28T12:23:14.489Z,21.27
2023-03-28T12:25:41.348Z,21.29
2023-03-28T12:28:07.737Z,21.30
2023-03-28T12:30:34.125Z,21.29
2023-03-28T12:33:00.507Z,21.26
2023-03-28T12:35:26.871Z,21.19
2023-03-28T12:37:53.383Z,21.14
2023-03-28T12:40:19.717Z,21.13
2023-03-28T12:42:46.103Z,21.11
2023-03-28T12:45:12.468Z,21.07
2023-03-28T12:47:38.837Z,20.98
2023-03-28T12:50:05.193Z,20.96
2023-03-28T12:52:31.822Z,20.92
2023-03-28T12:55:00.844Z,20.88
2023-03-28T12:59:51.016Z,20.72
2023-03-28T13:02:17.338Z,20.65
2023-03-28T13:04:44.313Z,20.54
2023-03-28T13:07:10.778Z,20.44
2023-03-28T13:09:37.174Z,20.35
2023-03-28T13:12:03.580Z,20.28
2023-03-28T13:14:30.473Z,20.18
2023-03-28T13:16:56.811Z,20.01
2023-03-28T13:19:23.208Z,19.85
2023-03-28T13:21:49.663Z,19.61
2023-03-28T13:24:16.039Z,19.36
2023-03-28T13:26:42.407Z,19.16
2023-03-28T13:29:08.991Z,18.92
2023-03-28T13:31:35.334Z,18.71
2023-03-28T13:34:01.970Z,18.53
2023-03-28T13:36:28.106Z,18.29
2023-03-28T13:38:54.443Z,18.20
2023-03-28T13:41:20.752Z,18.01
2023-03-28T13:43:47.147Z,17.79
2023-03-28T13:46:13.600Z,17.24
2023-03-28T13:48:39.888Z,16.70
2023-03-28T13:51:06.272Z,16.24
2023-03-28T13:53:46.432Z,15.87
2023-03-28T13:55:59.267Z,15.57
2023-03-28T13:58:25.368Z,15.34
2023-03-28T14:00:51.695Z,15.13
2023-03-28T14:03:18.410Z,15.01
2023-03-28T14:05:44.628Z,14.90
2023-03-28T14:08:11.003Z,14.75
2023-03-28T14:10:37.417Z,14.57
2023-03-28T14:13:03.773Z,14.44
2023-03-28T14:15:30.438Z,14.33
2023-03-28T14:17:56.518Z,14.20
2023-03-28T14:20:22.900Z,14.11
2023-03-28T14:22:59.871Z,14.03
2023-03-28T14:25:15.881Z,13.98
2023-03-28T14:27:42.263Z,13.94
2023-03-28T14:30:08.592Z,13.89
2023-03-28T14:32:37.823Z,13.82
2023-03-28T14:35:01.459Z,13.74
2023-03-28T14:37:27.948Z,13.66
2023-03-28T14:39:54.387Z,13.57
2023-03-28T14:42:20.732Z,13.51
2023-03-28T14:44:47.113Z,13.41
2023-03-28T14:47:13.525Z,13.34
2023-03-28T14:49:39.920Z,13.22
2023-03-28T14:52:06.313Z,13.13
2023-03-28T14:54:32.889Z,13.03
2023-03-28T14:56:59.161Z,12.94
2023-03-28T14:59:25.485Z,12.88
2023-03-28T15:01:51.905Z,12.81
2023-03-28T15:04:18.149Z,12.73
2023-03-28T15:06:44.535Z,12.62
2023-03-28T15:09:10.868Z,12.50
2023-03-28T15:11:37.213Z,12.39
2023-03-28T15:14:04.390Z,12.39
2023-03-28T15:16:30.853Z,12.33
2023-03-28T15:18:57.403Z,12.23
2023-03-28T15:21:23.844Z,12.30
2023-03-28T15:23:50.140Z,12.31
2023-03-28T15:26:16.545Z,12.23
2023-03-28T15:28:42.860Z,12.12
2023-03-28T15:31:09.969Z,12.04
2023-03-28T15:33:36.273Z,11.97
2023-03-28T15:36:02.682Z,11.94
2023-03-28T15:38:29.310Z,11.87
2023-03-28T15:40:55.665Z,11.81
2023-03-28T15:43:23.151Z,11.75
2023-03-28T15:45:49.612Z,11.69
2023-03-28T15:48:15.987Z,11.62
2023-03-28T15:50:42.377Z,11.54
2023-03-28T15:53:08.764Z,11.45
2023-03-28T15:55:35.157Z,11.39
2023-03-28T15:58:01.506Z,11.32
2023-03-28T16:00:27.868Z,11.25
2023-03-28T16:02:55.749Z,11.17
2023-03-28T16:05:21.945Z,11.07
2023-03-28T16:07:48.430Z,10.98
2023-03-28T16:10:24.570Z,10.94
2023-03-28T16:12:57.074Z,10.91
2023-03-28T16:15:23.569Z,10.83
2023-03-28T16:17:55.456Z,10.78
2023-03-28T16:20:22.917Z,10.76
2023-03-28T16:22:49.735Z,10.68
2023-03-28T16:25:16.137Z,10.59
2023-03-28T16:27:46.149Z,10.55
2023-03-28T16:30:13.212Z,10.51
2023-03-28T16:32:39.674Z,10.47
2023-03-28T16:35:06.163Z,10.41
2023-03-28T16:37:32.647Z,10.34
2023-03-28T16:40:03.566Z,10.26
2023-03-28T16:42:31.261Z,10.20
2023-03-28T16:44:57.974Z,10.12
2023-03-28T16:47:24.666Z,10.12
2023-03-28T16:49:51.372Z,10.08
2023-03-28T16:52:19.765Z,10.01
2023-03-28T16:54:47.281Z,9.97
2023-03-28T16:57:13.648Z,9.94
2023-03-28T16:59:41.049Z,9.91
2023-03-28T17:02:07.623Z,9.84
2023-03-28T17:04:33.974Z,9.79
2023-03-28T17:07:00.363Z,9.83
2023-03-28T17:09:26.710Z,9.81
2023-03-28T17:11:53.122Z,9.76
2023-03-28T17:14:19.654Z,9.70
2023-03-28T17:16:46.033Z,9.65
2023-03-28T17:19:12.382Z,9.60
2023-03-28T17:21:39.932Z,9.58
2023-03-28T17:24:06.286Z,9.55
2023-03-28T17:26:33.508Z,9.48
2023-03-28T17:28:59.881Z,9.44
2023-03-28T17:31:26.359Z,9.40
2023-03-28T17:33:55.239Z,9.35
2023-03-28T17:36:22.106Z,9.31
2023-03-28T17:38:48.974Z,9.33
2023-03-28T17:41:22.829Z,9.36
2023-03-28T17:43:49.266Z,9.39
2023-03-28T17:46:15.726Z,9.40
2023-03-28T17:48:42.201Z,9.40
2023-03-28T17:51:08.603Z,9.33
2023-03-28T17:53:35.129Z,9.21
2023-03-28T17:56:01.793Z,9.11
2023-03-28T17:58:27.886Z,9.11
2023-03-28T18:00:54.890Z,9.60
2023-03-28T18:03:21.272Z,9.43
2023-03-28T18:05:47.593Z,9.11
2023-03-28T18:08:14.000Z,8.90
2023-03-28T18:10:40.573Z,8.75
2023-03-28T18:13:07.083Z,8.64
2023-03-28T18:15:33.437Z,8.57
2023-03-28T18:17:59.958Z,8.50
2023-03-28T18:20:26.325Z,8.44
2023-03-28T18:22:52.698Z,8.38
2023-03-28T18:25:19.137Z,8.33
2023-03-28T18:27:45.457Z,8.29
2023-03-28T18:30:11.814Z,8.23
2023-03-28T18:32:38.215Z,8.19
2023-03-28T18:35:04.534Z,8.15
2023-03-28T18:37:30.940Z,8.11
2023-03-28T18:39:57.323Z,8.05
2023-03-28T18:42:23.703Z,8.02
2023-03-28T18:44:50.112Z,7.99
2023-03-28T18:47:16.467Z,7.94
2023-03-28T18:49:43.342Z,7.91
2023-03-28T18:52:09.837Z,7.89
2023-03-28T18:54:36.278Z,7.85
2023-03-28T18:57:04.923Z,7.81
2023-03-28T18:59:31.201Z,7.78
2023-03-28T19:01:57.502Z,7.74
2023-03-28T19:04:23.968Z,7.74
2023-03-28T19:06:50.398Z,7.71
2023-03-28T19:09:16.826Z,7.68
2023-03-28T19:11:43.295Z,7.66
2023-03-28T19:14:09.642Z,7.62
2023-03-28T19:16:36.106Z,7.60
2023-03-28T19:19:02.435Z,7.58
2023-03-28T19:21:28.750Z,7.54
2023-03-28T19:23:55.206Z,7.53
2023-03-28T19:26:21.549Z,7.49
2023-03-28T19:28:47.904Z,7.48
2023-03-28T19:31:14.490Z,7.45
2023-03-28T19:33:40.622Z,7.41
2023-03-28T19:36:07.547Z,7.40
2023-03-28T19:38:33.802Z,7.36
2023-03-28T19:41:00.210Z,7.32
2023-03-28T19:43:27.193Z,7.29
2023-03-28T19:45:53.649Z,7.29
2023-03-28T19:48:20.023Z,7.27
2023-03-28T19:50:46.332Z,7.26
2023-03-28T19:53:12.720Z,7.23
2023-03-28T19:55:39.119Z,7.21
2023-03-28T19:58:05.503Z,7.18
2023-03-28T20:00:31.856Z,7.17
2023-03-28T20:02:58.533Z,7.13
2023-03-28T20:05:24.761Z,7.10
2023-03-28T20:07:51.139Z,7.10
2023-03-28T20:10:17.540Z,7.08
2023-03-28T20:12:43.916Z,7.06
2023-03-28T20:15:11.310Z,7.04
2023-03-28T20:17:37.799Z,7.04
2023-03-28T20:20:03.983Z,7.02
2023-03-28T20:22:30.323Z,7.03
2023-03-28T20:24:56.699Z,7.01
2023-03-28T20:27:23.086Z,6.98
2023-03-28T20:29:49.448Z,6.96
2023-03-28T20:32:15.810Z,6.94
2023-03-28T20:34:42.249Z,6.95
2023-03-28T20:37:08.592Z,6.92
2023-03-28T20:39:34.970Z,6.90
2023-03-28T20:42:01.586Z,6.89
2023-03-28T20:44:27.945Z,6.86
2023-03-28T20:46:54.402Z,6.85
2023-03-28T20:49:20.958Z,6.82
2023-03-28T20:51:47.591Z,6.83
2023-03-28T20:54:13.946Z,6.81
2023-03-28T20:56:40.292Z,6.80
2023-03-28T20:59:06.805Z,6.78
2023-03-28T21:01:33.205Z,6.76
2023-03-28T21:03:59.450Z,6.75
2023-03-28T21:06:25.860Z,6.75
2023-03-28T21:08:52.279Z,6.75
2023-03-28T21:11:18.606Z,6.75
2023-03-28T21:13:44.963Z,6.75
2023-03-28T21:16:11.420Z,6.75
2023-03-28T21:18:37.730Z,6.76
2023-03-28T21:21:04.232Z,6.76
2023-03-28T21:23:30.630Z,6.80
2023-03-28T21:25:57.001Z,6.80
2023-03-28T21:28:23.361Z,6.83
2023-03-28T21:30:49.791Z,6.87
2023-03-28T21:33:16.204Z,6.92
2023-03-28T21:35:42.638Z,6.95
2023-03-28T21:38:10.661Z,6.98
2023-03-28T21:40:35.436Z,7.00
2023-03-28T21:43:01.921Z,7.02
2023-03-28T21:45:28.343Z,7.05
2023-03-28T21:47:54.701Z,7.08
2023-03-28T21:50:21.158Z,7.09
2023-03-28T21:52:47.520Z,7.08
2023-03-28T21:55:15.169Z,7.11
2023-03-28T21:57:41.540Z,7.11
2023-03-28T22:00:08.140Z,7.11
2023-03-28T22:02:34.545Z,7.11
2023-03-28T22:05:00.909Z,7.12
2023-03-28T22:07:27.534Z,7.12
2023-03-28T22:09:53.970Z,7.09
2023-03-28T22:12:22.695Z,7.08
2023-03-28T22:14:49.206Z,7.06
2023-03-28T22:17:15.489Z,7.03
2023-03-28T22:19:41.836Z,6.99
2023-03-28T22:22:08.157Z,6.96
2023-03-28T22:24:34.539Z,6.91
2023-03-28T22:27:00.892Z,6.88
2023-03-28T22:29:27.280Z,6.83
2023-03-28T22:31:53.685Z,6.81
2023-03-28T22:34:19.993Z,6.79
2023-03-28T22:36:46.360Z,6.76
2023-03-28T22:39:12.684Z,6.74
2023-03-28T22:41:39.084Z,6.72
2023-03-28T22:44:05.452Z,6.69
2023-03-28T22:46:31.806Z,6.68
2023-03-28T22:48:58.154Z,6.68
2023-03-28T22:51:24.690Z,6.65
2023-03-28T22:53:51.004Z,6.64
2023-03-28T22:56:17.604Z,6.61
2023-03-28T22:58:43.961Z,6.59
2023-03-28T23:01:10.307Z,6.58
2023-03-28T23:03:36.793Z,6.55
2023-03-28T23:06:03.161Z,6.51
2023-03-28T23:08:29.493Z,6.47
2023-03-28T23:10:55.897Z,6.44
2023-03-28T23:13:22.212Z,6.42
2023-03-28T23:15:48.600Z,6.40
2023-03-28T23:18:14.925Z,6.38
2023-03-28T23:20:41.228Z,6.36
2023-03-28T23:23:07.792Z,6.34
2023-03-28T23:25:34.136Z,6.28
2023-03-28T23:28:00.672Z,6.26
2023-03-28T23:30:27.030Z,6.27
2023-03-28T23:32:53.547Z,6.25
2023-03-28T23:35:19.882Z,6.24
2023-03-28T23:37:46.198Z,6.22
2023-03-28T23:40:12.554Z,6.19
2023-03-28T23:42:38.887Z,6.18
2023-03-28T23:45:05.278Z,6.16
2023-03-28T23:47:31.858Z,6.16
2023-03-28T23:49:59.239Z,6.11
2023-03-28T23:52:25.643Z,6.11
2023-03-28T23:54:52.086Z,6.11
2023-03-28T23:57:18.566Z,6.08
2023-03-28T23:59:44.819Z,6.07
